sensor_id;sensor_type;location;lat;lon;timestamp;pressure;altitude;pressure_sealevel;temperature;humidity
3150;BME280;32503;47.748;8.960;2023-02-12T00:01:15;98786.66;;;1.52;63.73
3150;BME280;32503;47.748;8.960;2023-02-12T00:03:42;98787.63;;;1.46;63.48
3150;BME280;32503;47.748;8.960;2023-02-12T00:06:11;98802.75;;;1.40;63.96
3150;BME280;32503;47.748;8.960;2023-02-12T00:08:39;98794.53;;;1.42;63.68
3150;BME280;32503;47.748;8.960;2023-02-12T00:11:08;98798.53;;;1.44;63.94
3150;BME280;32503;47.748;8.960;2023-02-12T00:13:36;98794.84;;;1.45;63.34
3150;BME280;32503;47.748;8.960;2023-02-12T00:16:05;98792.72;;;1.47;63.40
3150;BME280;32503;47.748;8.960;2023-02-12T00:18:33;98794.66;;;1.52;63.14
3150;BME280;32503;47.748;8.960;2023-02-12T00:21:01;98794.59;;;1.47;63.47
3150;BME280;32503;47.748;8.960;2023-02-12T00:23:29;98802.22;;;1.38;63.68
3150;BME280;32503;47.748;8.960;2023-02-12T00:25:57;98790.00;;;1.42;63.67
3150;BME280;32503;47.748;8.960;2023-02-12T00:28:24;98788.41;;;1.41;63.91
3150;BME280;32503;47.748;8.960;2023-02-12T00:30:51;98789.44;;;1.40;64.05
3150;BME280;32503;47.748;8.960;2023-02-12T00:33:18;98785.59;;;1.31;64.26
3150;BME280;32503;47.748;8.960;2023-02-12T00:35:53;98795.19;;;1.32;63.98
3150;BME280;32503;47.748;8.960;2023-02-12T00:38:20;98797.28;;;1.30;64.45
3150;BME280;32503;47.748;8.960;2023-02-12T00:40:48;98794.56;;;1.25;64.52
3150;BME280;32503;47.748;8.960;2023-02-12T00:43:15;98787.13;;;1.27;64.22
3150;BME280;32503;47.748;8.960;2023-02-12T00:45:43;98798.84;;;1.26;64.51
3150;BME280;32503;47.748;8.960;2023-02-12T00:48:11;98797.97;;;1.20;64.18
3150;BME280;32503;47.748;8.960;2023-02-12T00:50:38;98808.44;;;1.27;63.90
3150;BME280;32503;47.748;8.960;2023-02-12T00:53:05;98807.31;;;1.23;64.10
3150;BME280;32503;47.748;8.960;2023-02-12T00:55:33;98804.09;;;1.21;64.03
3150;BME280;32503;47.748;8.960;2023-02-12T00:58:01;98805.69;;;1.22;64.02
3150;BME280;32503;47.748;8.960;2023-02-12T01:00:28;98802.53;;;1.25;63.51
3150;BME280;32503;47.748;8.960;2023-02-12T01:02:55;98802.41;;;1.14;64.13
3150;BME280;32503;47.748;8.960;2023-02-12T01:05:22;98796.69;;;1.06;64.55
3150;BME280;32503;47.748;8.960;2023-02-12T01:07:50;98800.09;;;1.01;64.71
3150;BME280;32503;47.748;8.960;2023-02-12T01:10:18;98790.72;;;0.99;65.10
3150;BME280;32503;47.748;8.960;2023-02-12T01:12:47;98787.97;;;0.93;65.08
3150;BME280;32503;47.748;8.960;2023-02-12T01:15:17;98794.69;;;0.96;65.27
3150;BME280;32503;47.748;8.960;2023-02-12T01:17:44;98786.78;;;1.01;64.76
3150;BME280;32503;47.748;8.960;2023-02-12T01:20:15;98792.03;;;0.96;65.23
3150;BME280;32503;47.748;8.960;2023-02-12T01:22:43;98786.22;;;0.99;64.79
3150;BME280;32503;47.748;8.960;2023-02-12T01:25:10;98789.69;;;1.00;64.54
3150;BME280;32503;47.748;8.960;2023-02-12T01:27:38;98787.34;;;1.03;64.12
3150;BME280;32503;47.748;8.960;2023-02-12T01:30:08;98785.22;;;1.05;64.22
3150;BME280;32503;47.748;8.960;2023-02-12T01:32:37;98781.53;;;1.06;63.86
3150;BME280;32503;47.748;8.960;2023-02-12T01:35:07;98778.94;;;1.11;63.28
3150;BME280;32503;47.748;8.960;2023-02-12T01:37:35;98780.06;;;0.99;63.65
3150;BME280;32503;47.748;8.960;2023-02-12T01:40:05;98779.75;;;0.95;63.86
3150;BME280;32503;47.748;8.960;2023-02-12T01:42:32;98776.59;;;0.98;63.90
3150;BME280;32503;47.748;8.960;2023-02-12T01:45:48;98780.13;;;1.04;64.08
3150;BME280;32503;47.748;8.960;2023-02-12T01:48:18;98788.97;;;1.04;64.08
3150;BME280;32503;47.748;8.960;2023-02-12T01:50:47;98777.78;;;1.07;63.94
3150;BME280;32503;47.748;8.960;2023-02-12T01:53:16;98772.16;;;1.04;63.81
3150;BME280;32503;47.748;8.960;2023-02-12T01:55:48;98772.19;;;0.87;64.27
3150;BME280;32503;47.748;8.960;2023-02-12T01:58:16;98775.81;;;0.81;64.52
3150;BME280;32503;47.748;8.960;2023-02-12T02:00:44;98790.75;;;0.82;64.79
3150;BME280;32503;47.748;8.960;2023-02-12T02:03:12;98783.47;;;0.77;64.66
3150;BME280;32503;47.748;8.960;2023-02-12T02:05:46;98776.78;;;0.74;65.19
3150;BME280;32503;47.748;8.960;2023-02-12T02:08:15;98774.59;;;0.71;64.92
3150;BME280;32503;47.748;8.960;2023-02-12T02:10:42;98772.19;;;0.70;65.12
3150;BME280;32503;47.748;8.960;2023-02-12T02:13:09;98774.53;;;0.66;65.44
3150;BME280;32503;47.748;8.960;2023-02-12T02:15:59;98774.44;;;0.61;65.42
3150;BME280;32503;47.748;8.960;2023-02-12T02:18:34;98777.09;;;0.61;65.49
3150;BME280;32503;47.748;8.960;2023-02-12T02:21:45;98770.31;;;0.70;65.11
3150;BME280;32503;47.748;8.960;2023-02-12T02:28:00;98772.84;;;0.60;65.21
3150;BME280;32503;47.748;8.960;2023-02-12T02:30:40;98766.38;;;0.56;65.25
3150;BME280;32503;47.748;8.960;2023-02-12T02:33:22;98770.56;;;0.52;65.25
3150;BME280;32503;47.748;8.960;2023-02-12T02:35:59;98774.91;;;0.58;65.20
3150;BME280;32503;47.748;8.960;2023-02-12T02:38:32;98761.06;;;0.56;65.00
3150;BME280;32503;47.748;8.960;2023-02-12T02:41:05;98761.06;;;0.56;65.26
3150;BME280;32503;47.748;8.960;2023-02-12T02:43:38;98741.53;;;0.50;64.94
3150;BME280;32503;47.748;8.960;2023-02-12T02:46:11;98759.94;;;0.52;65.04
3150;BME280;32503;47.748;8.960;2023-02-12T02:48:45;98738.47;;;0.42;64.91
3150;BME280;32503;47.748;8.960;2023-02-12T02:51:19;98764.69;;;0.50;65.09
3150;BME280;32503;47.748;8.960;2023-02-12T02:53:51;98759.94;;;0.52;65.28
3150;BME280;32503;47.748;8.960;2023-02-12T02:56:22;98751.06;;;0.46;65.16
3150;BME280;32503;47.748;8.960;2023-02-12T02:58:54;98755.81;;;0.44;65.01
3150;BME280;32503;47.748;8.960;2023-02-12T03:01:26;98758.97;;;0.41;65.27
3150;BME280;32503;47.748;8.960;2023-02-12T03:04:01;98760.41;;;0.49;65.09
3150;BME280;32503;47.748;8.960;2023-02-12T03:06:36;98769.47;;;0.48;65.24
3150;BME280;32503;47.748;8.960;2023-02-12T03:09:16;98774.78;;;0.48;64.97
3150;BME280;32503;47.748;8.960;2023-02-12T03:11:45;98760.41;;;0.49;64.93
3150;BME280;32503;47.748;8.960;2023-02-12T03:14:15;98758.81;;;0.48;64.84
3150;BME280;32503;47.748;8.960;2023-02-12T03:16:52;98757.50;;;0.50;64.95
3150;BME280;32503;47.748;8.960;2023-02-12T03:19:24;98754.53;;;0.47;65.14
3150;BME280;32503;47.748;8.960;2023-02-12T03:21:56;98759.38;;;0.50;65.12
3150;BME280;32503;47.748;8.960;2023-02-12T03:24:31;98765.72;;;0.49;64.98
3150;BME280;32503;47.748;8.960;2023-02-12T03:27:06;98755.00;;;0.44;65.03
3150;BME280;32503;47.748;8.960;2023-02-12T03:29:35;98759.13;;;0.51;65.01
3150;BME280;32503;47.748;8.960;2023-02-12T03:32:16;98755.66;;;0.51;64.94
3150;BME280;32503;47.748;8.960;2023-02-12T03:34:50;98756.16;;;0.48;64.84
3150;BME280;32503;47.748;8.960;2023-02-12T03:37:27;98751.94;;;0.35;65.07
3150;BME280;32503;47.748;8.960;2023-02-12T03:39:57;98755.88;;;0.32;65.02
3150;BME280;32503;47.748;8.960;2023-02-12T03:42:38;98759.59;;;0.31;65.28
3150;BME280;32503;47.748;8.960;2023-02-12T03:45:15;98757.16;;;0.30;65.22
3150;BME280;32503;47.748;8.960;2023-02-12T03:47:49;98756.69;;;0.33;64.94
3150;BME280;32503;47.748;8.960;2023-02-12T03:50:25;98758.00;;;0.30;64.89
3150;BME280;32503;47.748;8.960;2023-02-12T03:52:54;98765.97;;;0.30;64.98
3150;BME280;32503;47.748;8.960;2023-02-12T03:55:21;98762.81;;;0.33;64.80
3150;BME280;32503;47.748;8.960;2023-02-12T03:57:52;98765.47;;;0.33;64.60
3150;BME280;32503;47.748;8.960;2023-02-12T04:00:23;98771.13;;;0.37;64.73
3150;BME280;32503;47.748;8.960;2023-02-12T04:02:52;98766.53;;;0.32;64.45
3150;BME280;32503;47.748;8.960;2023-02-12T04:05:23;98776.28;;;0.27;65.13
3150;BME280;32503;47.748;8.960;2023-02-12T04:07:52;98775.38;;;0.21;65.27
3150;BME280;32503;47.748;8.960;2023-02-12T04:10:26;98776.81;;;0.12;65.94
3150;BME280;32503;47.748;8.960;2023-02-12T04:13:11;98773.59;;;0.10;66.38
3150;BME280;32503;47.748;8.960;2023-02-12T04:15:52;98790.59;;;0.09;66.81
3150;BME280;32503;47.748;8.960;2023-02-12T04:18:32;98771.63;;;0.05;66.27
3150;BME280;32503;47.748;8.960;2023-02-12T04:21:11;98782.00;;;0.18;66.08
3150;BME280;32503;47.748;8.960;2023-02-12T04:23:48;98787.53;;;0.17;65.97
3150;BME280;32503;47.748;8.960;2023-02-12T04:26:25;98796.19;;;0.24;65.80
3150;BME280;32503;47.748;8.960;2023-02-12T04:29:08;98806.97;;;0.17;65.95
3150;BME280;32503;47.748;8.960;2023-02-12T04:31:46;98785.25;;;0.09;66.24
3150;BME280;32503;47.748;8.960;2023-02-12T04:34:20;98787.13;;;0.08;66.30
3150;BME280;32503;47.748;8.960;2023-02-12T04:36:58;98802.63;;;0.11;66.07
3150;BME280;32503;47.748;8.960;2023-02-12T04:39:30;98794.31;;;0.08;66.27
3150;BME280;32503;47.748;8.960;2023-02-12T04:41:59;98792.31;;;0.15;66.02
3150;BME280;32503;47.748;8.960;2023-02-12T04:44:31;98803.19;;;0.13;66.10
3150;BME280;32503;47.748;8.960;2023-02-12T04:46:59;98806.63;;;0.14;65.90
3150;BME280;32503;47.748;8.960;2023-02-12T04:49:28;98800.53;;;0.13;65.95
3150;BME280;32503;47.748;8.960;2023-02-12T04:51:55;98801.41;;;0.19;65.86
3150;BME280;32503;47.748;8.960;2023-02-12T04:54:23;98800.94;;;0.22;65.65
3150;BME280;32503;47.748;8.960;2023-02-12T04:56:50;98794.97;;;0.15;65.79
3150;BME280;32503;47.748;8.960;2023-02-12T04:59:18;98786.78;;;0.05;66.26
3150;BME280;32503;47.748;8.960;2023-02-12T05:01:45;98798.00;;;0.07;66.27
3150;BME280;32503;47.748;8.960;2023-02-12T05:04:15;98796.50;;;0.11;66.21
3150;BME280;32503;47.748;8.960;2023-02-12T05:06:44;98786.00;;;0.04;66.18
3150;BME280;32503;47.748;8.960;2023-02-12T05:09:14;98798.09;;;0.12;65.99
3150;BME280;32503;47.748;8.960;2023-02-12T05:11:42;98786.97;;;0.15;65.72
3150;BME280;32503;47.748;8.960;2023-02-12T05:14:09;98790.22;;;0.17;65.58
3150;BME280;32503;47.748;8.960;2023-02-12T05:16:36;98789.19;;;0.18;65.66
3150;BME280;32503;47.748;8.960;2023-02-12T05:19:03;98784.56;;;0.13;65.34
3150;BME280;32503;47.748;8.960;2023-02-12T05:21:30;98784.22;;;0.10;65.47
3150;BME280;32503;47.748;8.960;2023-02-12T05:24:00;98781.94;;;0.02;65.76
3150;BME280;32503;47.748;8.960;2023-02-12T05:26:28;98794.00;;;-0.08;66.29
3150;BME280;32503;47.748;8.960;2023-02-12T05:28:55;98793.06;;;-0.02;66.17
3150;BME280;32503;47.748;8.960;2023-02-12T05:31:22;98796.31;;;0.01;65.88
3150;BME280;32503;47.748;8.960;2023-02-12T05:33:49;98795.84;;;0.04;65.90
3150;BME280;32503;47.748;8.960;2023-02-12T05:36:19;98791.00;;;0.01;65.81
3150;BME280;32503;47.748;8.960;2023-02-12T05:38:47;98786.47;;;0.01;65.64
3150;BME280;32503;47.748;8.960;2023-02-12T05:41:19;98796.88;;;0.03;65.71
3150;BME280;32503;47.748;8.960;2023-02-12T05:43:46;98785.19;;;0.04;65.59
3150;BME280;32503;47.748;8.960;2023-02-12T05:46:13;98779.28;;;0.02;65.62
3150;BME280;32503;47.748;8.960;2023-02-12T05:48:40;98786.59;;;-0.06;65.81
3150;BME280;32503;47.748;8.960;2023-02-12T05:51:09;98785.09;;;-0.02;65.35
3150;BME280;32503;47.748;8.960;2023-02-12T05:53:38;98781.84;;;-0.04;65.67
3150;BME280;32503;47.748;8.960;2023-02-12T05:56:08;98786.59;;;-0.06;65.79
3150;BME280;32503;47.748;8.960;2023-02-12T05:58:37;98782.44;;;-0.02;65.80
3150;BME280;32503;47.748;8.960;2023-02-12T06:01:10;98779.13;;;-0.09;65.92
3150;BME280;32503;47.748;8.960;2023-02-12T06:03:39;98782.16;;;-0.17;66.07
3150;BME280;32503;47.748;8.960;2023-02-12T06:06:06;98783.19;;;-0.18;66.02
3150;BME280;32503;47.748;8.960;2023-02-12T06:08:34;98773.03;;;-0.21;66.37
3150;BME280;32503;47.748;8.960;2023-02-12T06:11:02;98778.94;;;-0.19;66.51
3150;BME280;32503;47.748;8.960;2023-02-12T06:13:30;98789.66;;;-0.14;66.54
3150;BME280;32503;47.748;8.960;2023-02-12T06:15:59;98783.03;;;-0.11;66.40
3150;BME280;32503;47.748;8.960;2023-02-12T06:18:26;98780.25;;;-0.05;66.24
3150;BME280;32503;47.748;8.960;2023-02-12T06:20:53;98783.25;;;-0.01;65.86
3150;BME280;32503;47.748;8.960;2023-02-12T06:23:21;98781.94;;;0.02;65.61
3150;BME280;32503;47.748;8.960;2023-02-12T06:25:49;98788.88;;;0.03;65.54
3150;BME280;32503;47.748;8.960;2023-02-12T06:28:16;98774.56;;;0.04;65.48
3150;BME280;32503;47.748;8.960;2023-02-12T06:30:43;98787.84;;;0.04;65.54
3150;BME280;32503;47.748;8.960;2023-02-12T06:33:12;98775.34;;;0.04;65.49
3150;BME280;32503;47.748;8.960;2023-02-12T06:35:39;98774.56;;;0.04;65.45
3150;BME280;32503;47.748;8.960;2023-02-12T06:38:06;98778.25;;;0.03;65.55
3150;BME280;32503;47.748;8.960;2023-02-12T06:40:34;98784.28;;;-0.02;65.73
3150;BME280;32503;47.748;8.960;2023-02-12T06:43:01;98783.56;;;0.03;65.67
3150;BME280;32503;47.748;8.960;2023-02-12T06:45:28;98779.56;;;0.00;65.61
3150;BME280;32503;47.748;8.960;2023-02-12T06:47:55;98779.88;;;0.04;65.59
3150;BME280;32503;47.748;8.960;2023-02-12T06:50:24;98787.34;;;0.07;65.44
3150;BME280;32503;47.748;8.960;2023-02-12T06:52:51;98786.00;;;0.04;65.56
3150;BME280;32503;47.748;8.960;2023-02-12T06:55:18;98787.34;;;0.07;65.98
3150;BME280;32503;47.748;8.960;2023-02-12T06:57:45;98792.53;;;0.13;65.77
3150;BME280;32503;47.748;8.960;2023-02-12T07:00:13;98788.84;;;0.31;65.51
3150;BME280;32503;47.748;8.960;2023-02-12T07:02:40;98792.66;;;0.52;65.64
3150;BME280;32503;47.748;8.960;2023-02-12T07:05:07;98775.25;;;0.79;65.08
3150;BME280;32503;47.748;8.960;2023-02-12T07:07:36;98801.75;;;1.46;64.52
3150;BME280;32503;47.748;8.960;2023-02-12T07:10:04;98780.94;;;1.87;63.28
3150;BME280;32503;47.748;8.960;2023-02-12T07:12:32;98790.38;;;2.55;61.21
3150;BME280;32503;47.748;8.960;2023-02-12T07:14:59;98794.78;;;3.09;60.05
3150;BME280;32503;47.748;8.960;2023-02-12T07:17:28;98770.41;;;3.48;59.17
3150;BME280;32503;47.748;8.960;2023-02-12T07:19:55;98785.63;;;4.26;57.15
3150;BME280;32503;47.748;8.960;2023-02-12T07:22:23;98785.13;;;4.80;54.75
3150;BME280;32503;47.748;8.960;2023-02-12T07:24:51;98784.47;;;5.35;52.74
3150;BME280;32503;47.748;8.960;2023-02-12T07:27:18;98794.47;;;5.99;51.97
3150;BME280;32503;47.748;8.960;2023-02-12T07:29:45;98776.22;;;6.41;50.19
3150;BME280;32503;47.748;8.960;2023-02-12T07:32:12;98783.22;;;7.00;49.00
3150;BME280;32503;47.748;8.960;2023-02-12T07:34:39;98786.72;;;7.54;47.62
3150;BME280;32503;47.748;8.960;2023-02-12T07:37:06;98796.34;;;8.04;45.84
3150;BME280;32503;47.748;8.960;2023-02-12T07:39:33;98800.78;;;8.32;43.90
3150;BME280;32503;47.748;8.960;2023-02-12T07:42:01;98787.47;;;8.22;43.71
3150;BME280;32503;47.748;8.960;2023-02-12T07:44:28;98790.94;;;8.42;43.63
3150;BME280;32503;47.748;8.960;2023-02-12T07:46:57;98792.59;;;8.43;43.98
3150;BME280;32503;47.748;8.960;2023-02-12T07:49:24;98787.94;;;7.86;44.44
3150;BME280;32503;47.748;8.960;2023-02-12T07:51:51;98796.16;;;7.28;45.76
3150;BME280;32503;47.748;8.960;2023-02-12T07:54:20;98798.63;;;6.95;46.16
3150;BME280;32503;47.748;8.960;2023-02-12T07:56:47;98792.38;;;6.70;47.40
3150;BME280;32503;47.748;8.960;2023-02-12T07:59:17;98766.16;;;6.57;47.83
3150;BME280;32503;47.748;8.960;2023-02-12T08:01:46;98778.34;;;6.78;47.63
3150;BME280;32503;47.748;8.960;2023-02-12T08:04:16;98769.59;;;6.92;48.02
3150;BME280;32503;47.748;8.960;2023-02-12T08:06:46;98766.72;;;7.12;48.58
3150;BME280;32503;47.748;8.960;2023-02-12T08:09:16;98744.72;;;7.53;47.79
3150;BME280;32503;47.748;8.960;2023-02-12T08:11:45;98756.03;;;8.18;45.90
3150;BME280;32503;47.748;8.960;2023-02-12T08:14:16;98753.50;;;8.92;45.22
3150;BME280;32503;47.748;8.960;2023-02-12T08:16:45;98766.81;;;9.85;43.54
3150;BME280;32503;47.748;8.960;2023-02-12T08:19:13;98775.19;;;10.48;43.22
3150;BME280;32503;47.748;8.960;2023-02-12T08:21:40;98736.09;;;10.77;40.60
3150;BME280;32503;47.748;8.960;2023-02-12T08:24:09;98747.91;;;11.12;40.45
3150;BME280;32503;47.748;8.960;2023-02-12T08:26:38;98769.25;;;11.54;40.41
3150;BME280;32503;47.748;8.960;2023-02-12T08:29:09;98742.78;;;11.51;39.03
3150;BME280;32503;47.748;8.960;2023-02-12T08:31:40;98755.88;;;11.66;38.96
3150;BME280;32503;47.748;8.960;2023-02-12T08:34:16;98774.09;;;11.74;39.14
3150;BME280;32503;47.748;8.960;2023-02-12T08:36:44;98771.50;;;11.61;39.35
3150;BME280;32503;47.748;8.960;2023-02-12T08:39:13;98753.22;;;11.26;39.32
3150;BME280;32503;47.748;8.960;2023-02-12T08:41:40;98772.69;;;11.37;40.12
3150;BME280;32503;47.748;8.960;2023-02-12T08:44:08;98755.78;;;11.31;40.28
3150;BME280;32503;47.748;8.960;2023-02-12T08:46:39;98776.38;;;11.41;40.11
3150;BME280;32503;47.748;8.960;2023-02-12T08:49:11;98762.72;;;11.15;41.06
3150;BME280;32503;47.748;8.960;2023-02-12T08:51:42;98768.31;;;10.87;41.38
3150;BME280;32503;47.748;8.960;2023-02-12T08:54:11;98748.03;;;10.53;42.57
3150;BME280;32503;47.748;8.960;2023-02-12T08:56:39;98773.78;;;10.51;42.89
3150;BME280;32503;47.748;8.960;2023-02-12T08:59:07;98761.38;;;10.13;43.23
3150;BME280;32503;47.748;8.960;2023-02-12T09:01:37;98765.19;;;9.98;43.82
3150;BME280;32503;47.748;8.960;2023-02-12T09:04:07;98741.94;;;9.61;44.39
3150;BME280;32503;47.748;8.960;2023-02-12T09:06:37;98772.66;;;9.65;45.56
3150;BME280;32503;47.748;8.960;2023-02-12T09:09:04;98762.84;;;9.41;45.69
3150;BME280;32503;47.748;8.960;2023-02-12T09:11:34;98749.94;;;9.10;46.82
3150;BME280;32503;47.748;8.960;2023-02-12T09:14:06;98768.81;;;9.10;46.95
3150;BME280;32503;47.748;8.960;2023-02-12T09:16:35;98748.19;;;8.87;47.61
3150;BME280;32503;47.748;8.960;2023-02-12T09:19:04;98771.59;;;8.91;47.98
3150;BME280;32503;47.748;8.960;2023-02-12T09:21:31;98751.47;;;8.84;48.27
3150;BME280;32503;47.748;8.960;2023-02-12T09:24:00;98764.25;;;8.78;48.64
3150;BME280;32503;47.748;8.960;2023-02-12T09:26:28;98737.94;;;8.56;48.81
3150;BME280;32503;47.748;8.960;2023-02-12T09:28:55;98757.25;;;8.63;49.56
3150;BME280;32503;47.748;8.960;2023-02-12T09:31:24;98744.19;;;8.32;50.48
3150;BME280;32503;47.748;8.960;2023-02-12T09:33:52;98730.16;;;8.35;49.88
3150;BME280;32503;47.748;8.960;2023-02-12T09:36:21;98748.72;;;8.56;50.65
3150;BME280;32503;47.748;8.960;2023-02-12T09:38:48;98745.34;;;8.64;50.66
3150;BME280;32503;47.748;8.960;2023-02-12T09:42:12;98746.50;;;8.77;50.91
3150;BME280;32503;47.748;8.960;2023-02-12T09:44:47;98717.53;;;8.83;51.19
3150;BME280;32503;47.748;8.960;2023-02-12T09:47:22;98737.75;;;9.27;50.84
3150;BME280;32503;47.748;8.960;2023-02-12T09:50:26;98735.16;;;9.49;50.88
3150;BME280;32503;47.748;8.960;2023-02-12T09:52:59;98739.72;;;9.91;50.32
3150;BME280;32503;47.748;8.960;2023-02-12T09:55:32;98722.41;;;10.14;49.32
3150;BME280;32503;47.748;8.960;2023-02-12T09:58:03;98733.94;;;10.42;49.22
3150;BME280;32503;47.748;8.960;2023-02-12T10:00:32;98737.38;;;10.57;49.10
3150;BME280;32503;47.748;8.960;2023-02-12T10:03:03;98741.19;;;11.10;47.92
3150;BME280;32503;47.748;8.960;2023-02-12T10:05:34;98734.03;;;11.54;47.90
3150;BME280;32503;47.748;8.960;2023-02-12T10:08:23;98741.34;;;12.02;47.31
3150;BME280;32503;47.748;8.960;2023-02-12T10:11:04;98725.53;;;12.22;46.52
3150;BME280;32503;47.748;8.960;2023-02-12T10:13:46;98741.66;;;12.27;46.30
3150;BME280;32503;47.748;8.960;2023-02-12T10:16:23;98719.66;;;12.02;46.29
3150;BME280;32503;47.748;8.960;2023-02-12T10:19:12;98736.38;;;12.13;47.02
3150;BME280;32503;47.748;8.960;2023-02-12T10:21:54;98734.31;;;12.01;46.42
3150;BME280;32503;47.748;8.960;2023-02-12T10:24:43;98722.13;;;11.72;46.87
3150;BME280;32503;47.748;8.960;2023-02-12T10:27:16;98732.41;;;11.93;47.60
3150;BME280;32503;47.748;8.960;2023-02-12T10:29:46;98708.00;;;11.93;46.86
3150;BME280;32503;47.748;8.960;2023-02-12T10:32:23;98709.50;;;11.59;47.66
3150;BME280;32503;47.748;8.960;2023-02-12T10:34:52;98715.09;;;11.71;48.44
3150;BME280;32503;47.748;8.960;2023-02-12T10:37:29;98714.25;;;11.45;48.59
3150;BME280;32503;47.748;8.960;2023-02-12T10:40:04;98726.91;;;10.87;50.86
3150;BME280;32503;47.748;8.960;2023-02-12T10:42:37;98709.59;;;11.28;49.50
3150;BME280;32503;47.748;8.960;2023-02-12T10:45:13;98713.34;;;11.58;49.12
3150;BME280;32503;47.748;8.960;2023-02-12T10:47:41;98720.28;;;11.99;48.82
3150;BME280;32503;47.748;8.960;2023-02-12T10:50:19;98705.59;;;12.35;48.24
3150;BME280;32503;47.748;8.960;2023-02-12T10:52:53;98707.81;;;12.24;48.69
3150;BME280;32503;47.748;8.960;2023-02-12T10:55:28;98702.38;;;12.50;48.18
3150;BME280;32503;47.748;8.960;2023-02-12T10:57:56;98685.16;;;12.46;47.38
3150;BME280;32503;47.748;8.960;2023-02-12T11:00:29;98684.00;;;12.65;47.69
3150;BME280;32503;47.748;8.960;2023-02-12T11:03:04;98674.41;;;12.76;48.32
3150;BME280;32503;47.748;8.960;2023-02-12T11:05:34;98688.81;;;13.06;48.13
3150;BME280;32503;47.748;8.960;2023-02-12T11:08:02;98674.94;;;12.52;47.07
3150;BME280;32503;47.748;8.960;2023-02-12T11:10:35;98695.97;;;12.64;48.34
3150;BME280;32503;47.748;8.960;2023-02-12T11:13:03;98690.38;;;12.78;48.46
3150;BME280;32503;47.748;8.960;2023-02-12T11:15:37;98692.44;;;12.72;48.66
3150;BME280;32503;47.748;8.960;2023-02-12T11:18:23;98679.19;;;12.70;48.28
3150;BME280;32503;47.748;8.960;2023-02-12T11:20:52;98664.22;;;12.56;48.37
3150;BME280;32503;47.748;8.960;2023-02-12T11:23:25;98663.44;;;12.55;48.14
3150;BME280;32503;47.748;8.960;2023-02-12T11:25:59;98681.84;;;12.32;49.25
3150;BME280;32503;47.748;8.960;2023-02-12T11:28:27;98661.72;;;12.16;49.37
3150;BME280;32503;47.748;8.960;2023-02-12T11:30:58;98648.69;;;12.00;49.40
3150;BME280;32503;47.748;8.960;2023-02-12T11:33:32;98670.00;;;12.28;49.63
3150;BME280;32503;47.748;8.960;2023-02-12T11:36:03;98653.28;;;12.08;49.57
3150;BME280;32503;47.748;8.960;2023-02-12T11:38:35;98662.84;;;12.32;49.86
3150;BME280;32503;47.748;8.960;2023-02-12T11:41:17;98661.56;;;12.38;49.01
3150;BME280;32503;47.748;8.960;2023-02-12T11:43:47;98659.00;;;12.33;49.38
3150;BME280;32503;47.748;8.960;2023-02-12T11:46:20;98656.63;;;12.23;48.53
3150;BME280;32503;47.748;8.960;2023-02-12T11:48:49;98657.59;;;12.36;48.77
3150;BME280;32503;47.748;8.960;2023-02-12T11:51:23;98661.19;;;12.57;48.93
3150;BME280;32503;47.748;8.960;2023-02-12T11:53:52;98634.06;;;12.57;48.68
3150;BME280;32503;47.748;8.960;2023-02-12T11:56:22;98653.22;;;12.52;48.38
3150;BME280;32503;47.748;8.960;2023-02-12T11:58:50;98648.00;;;12.38;48.19
3150;BME280;32503;47.748;8.960;2023-02-12T12:01:21;98632.00;;;12.45;48.82
3150;BME280;32503;47.748;8.960;2023-02-12T12:03:58;98635.13;;;12.74;48.31
3150;BME280;32503;47.748;8.960;2023-02-12T12:06:35;98643.81;;;12.97;48.10
3150;BME280;32503;47.748;8.960;2023-02-12T12:09:10;98640.13;;;13.01;47.58
3150;BME280;32503;47.748;8.960;2023-02-12T12:11:50;98637.38;;;13.10;47.48
3150;BME280;32503;47.748;8.960;2023-02-12T12:14:24;98634.47;;;13.15;47.62
3150;BME280;32503;47.748;8.960;2023-02-12T12:16:58;98633.41;;;13.28;47.54
3150;BME280;32503;47.748;8.960;2023-02-12T12:19:54;98636.94;;;13.38;47.12
3150;BME280;32503;47.748;8.960;2023-02-12T12:22:38;98606.94;;;13.25;46.93
3150;BME280;32503;47.748;8.960;2023-02-12T12:25:15;98635.47;;;13.61;46.76
3150;BME280;32503;47.748;8.960;2023-02-12T12:27:56;98635.56;;;13.74;46.46
3150;BME280;32503;47.748;8.960;2023-02-12T12:30:50;98625.59;;;13.57;46.03
3150;BME280;32503;47.748;8.960;2023-02-12T12:33:29;98636.13;;;13.58;46.24
3150;BME280;32503;47.748;8.960;2023-02-12T12:36:34;98630.53;;;13.34;46.77
3150;BME280;32503;47.748;8.960;2023-02-12T12:39:18;98626.78;;;13.47;46.98
3150;BME280;32503;47.748;8.960;2023-02-12T12:42:24;98630.06;;;13.61;47.02
3150;BME280;32503;47.748;8.960;2023-02-12T12:45:24;98622.47;;;13.46;46.44
3150;BME280;32503;47.748;8.960;2023-02-12T12:48:12;98627.53;;;13.56;46.97
3150;BME280;32503;47.748;8.960;2023-02-12T12:51:04;98616.06;;;13.51;47.63
3150;BME280;32503;47.748;8.960;2023-02-12T12:53:45;98615.53;;;13.57;47.77
3150;BME280;32503;47.748;8.960;2023-02-12T12:56:56;98607.66;;;13.64;47.55
3150;BME280;32503;47.748;8.960;2023-02-12T13:00:00;98600.41;;;13.69;47.19
3150;BME280;32503;47.748;8.960;2023-02-12T13:03:14;98603.41;;;14.43;61.51
3150;BME280;32503;47.748;8.960;2023-02-12T13:06:24;98601.63;;;15.33;56.71
3150;BME280;32503;47.748;8.960;2023-02-12T13:09:11;98588.44;;;15.47;45.82
3150;BME280;32503;47.748;8.960;2023-02-12T13:11:56;98591.78;;;15.28;45.75
3150;BME280;32503;47.748;8.960;2023-02-12T13:14:39;98571.81;;;15.00;45.32
3150;BME280;32503;47.748;8.960;2023-02-12T13:17:15;98583.03;;;14.86;44.90
3150;BME280;32503;47.748;8.960;2023-02-12T13:19:59;98581.47;;;14.60;45.64
3150;BME280;32503;47.748;8.960;2023-02-12T13:22:36;98571.97;;;14.33;46.34
3150;BME280;32503;47.748;8.960;2023-02-12T13:25:21;98570.47;;;14.23;46.89
3150;BME280;32503;47.748;8.960;2023-02-12T13:27:51;98571.25;;;14.11;47.05
3150;BME280;32503;47.748;8.960;2023-02-12T13:30:23;98569.06;;;14.04;47.13
3150;BME280;32503;47.748;8.960;2023-02-12T13:33:05;98565.31;;;13.97;47.53
3150;BME280;32503;47.748;8.960;2023-02-12T13:35:40;98567.81;;;14.02;47.53
3150;BME280;32503;47.748;8.960;2023-02-12T13:38:16;98568.59;;;14.02;47.52
3150;BME280;32503;47.748;8.960;2023-02-12T13:40:45;98561.72;;;14.05;47.55
3150;BME280;32503;47.748;8.960;2023-02-12T13:43:30;98567.94;;;14.06;47.73
3150;BME280;32503;47.748;8.960;2023-02-12T13:46:07;98561.84;;;14.09;47.62
3150;BME280;32503;47.748;8.960;2023-02-12T13:48:51;98559.13;;;14.09;47.55
3150;BME280;32503;47.748;8.960;2023-02-12T13:51:32;98565.00;;;14.11;47.42